sensor_id;sensor_type;location;lat;lon;timestamp;P1;durP1;ratioP1;P2;durP2;ratioP2
44440;SDS011;30146;52.268;20.944;2024-01-30T00:00:01;42.30;;;19.90;;
44440;SDS011;30146;52.268;20.944;2024-01-30T00:02:33;38.70;;;19.50;;
44440;SDS011;30146;52.268;20.944;2024-01-30T00:05:05;38.40;;;18.60;;
44440;SDS011;30146;52.268;20.944;2024-01-30T00:07:36;44.70;;;21.50;;
44440;SDS011;30146;52.268;20.944;2024-01-30T00:10:08;35.30;;;19.80;;
44440;SDS011;30146;52.268;20.944;2024-01-30T00:12:39;46.70;;;21.20;;
44440;SDS011;30146;52.268;20.944;2024-01-30T00:15:10;37.90;;;18.30;;
44440;SDS011;30146;52.268;20.944;2024-01-30T00:17:41;40.80;;;21.10;;
44440;SDS011;30146;52.268;20.944;2024-01-30T00:20:12;39.40;;;20.20;;
44440;SDS011;30146;52.268;20.944;2024-01-30T00:22:43;42.40;;;18.60;;
44440;SDS011;30146;52.268;20.944;2024-01-30T00:25:14;38.20;;;20.40;;
44440;SDS011;30146;52.268;20.944;2024-01-30T00:27:45;43.20;;;21.20;;
44440;SDS011;30146;52.268;20.944;2024-01-30T00:30:17;41.80;;;19.50;;
44440;SDS011;30146;52.268;20.944;2024-01-30T00:32:49;43.30;;;20.00;;
44440;SDS011;30146;52.268;20.944;2024-01-30T00:35:20;37.20;;;20.20;;
44440;SDS011;30146;52.268;20.944;2024-01-30T00:37:51;41.20;;;19.10;;
44440;SDS011;30146;52.268;20.944;2024-01-30T00:40:22;35.10;;;19.00;;
44440;SDS011;30146;52.268;20.944;2024-01-30T00:42:53;48.20;;;21.30;;
44440;SDS011;30146;52.268;20.944;2024-01-30T00:45:24;36.10;;;18.70;;
44440;SDS011;30146;52.268;20.944;2024-01-30T00:47:55;43.00;;;19.10;;
44440;SDS011;30146;52.268;20.944;2024-01-30T00:50:26;40.80;;;19.70;;
44440;SDS011;30146;52.268;20.944;2024-01-30T00:52:57;41.20;;;20.20;;
44440;SDS011;30146;52.268;20.944;2024-01-30T00:55:28;45.20;;;19.50;;
44440;SDS011;30146;52.268;20.944;2024-01-30T00:58:00;44.20;;;20.80;;
44440;SDS011;30146;52.268;20.944;2024-01-30T01:00:31;43.40;;;20.90;;
44440;SDS011;30146;52.268;20.944;2024-01-30T01:03:02;39.00;;;20.70;;
44440;SDS011;30146;52.268;20.944;2024-01-30T01:05:34;45.70;;;20.20;;
44440;SDS011;30146;52.268;20.944;2024-01-30T01:08:05;44.60;;;20.60;;
44440;SDS011;30146;52.268;20.944;2024-01-30T01:10:37;43.50;;;21.90;;
44440;SDS011;30146;52.268;20.944;2024-01-30T01:13:08;48.50;;;22.10;;
44440;SDS011;30146;52.268;20.944;2024-01-30T01:15:39;37.70;;;19.90;;
44440;SDS011;30146;52.268;20.944;2024-01-30T01:18:12;39.30;;;18.90;;
44440;SDS011;30146;52.268;20.944;2024-01-30T01:20:44;41.40;;;19.30;;
44440;SDS011;30146;52.268;20.944;2024-01-30T01:23:15;43.00;;;20.90;;
44440;SDS011;30146;52.268;20.944;2024-01-30T01:25:45;41.80;;;20.20;;
44440;SDS011;30146;52.268;20.944;2024-01-30T01:28:16;45.40;;;21.60;;
44440;SDS011;30146;52.268;20.944;2024-01-30T01:30:47;46.10;;;21.60;;
44440;SDS011;30146;52.268;20.944;2024-01-30T01:33:19;40.90;;;20.00;;
44440;SDS011;30146;52.268;20.944;2024-01-30T01:35:51;39.40;;;18.80;;
44440;SDS011;30146;52.268;20.944;2024-01-30T01:38:21;39.10;;;18.80;;
44440;SDS011;30146;52.268;20.944;2024-01-30T01:40:52;38.20;;;17.20;;
44440;SDS011;30146;52.268;20.944;2024-01-30T01:43:24;41.10;;;21.10;;
44440;SDS011;30146;52.268;20.944;2024-01-30T01:45:55;39.60;;;19.30;;
44440;SDS011;30146;52.268;20.944;2024-01-30T01:48:26;39.70;;;19.00;;
44440;SDS011;30146;52.268;20.944;2024-01-30T01:50:57;47.10;;;19.40;;
44440;SDS011;30146;52.268;20.944;2024-01-30T01:53:30;41.80;;;20.30;;
44440;SDS011;30146;52.268;20.944;2024-01-30T01:56:01;42.30;;;18.40;;
44440;SDS011;30146;52.268;20.944;2024-01-30T01:58:32;43.60;;;21.00;;
44440;SDS011;30146;52.268;20.944;2024-01-30T02:01:04;42.20;;;20.50;;
44440;SDS011;30146;52.268;20.944;2024-01-30T02:03:37;41.40;;;21.10;;
44440;SDS011;30146;52.268;20.944;2024-01-30T02:06:09;43.00;;;20.40;;
44440;SDS011;30146;52.268;20.944;2024-01-30T02:08:40;43.70;;;21.10;;
44440;SDS011;30146;52.268;20.944;2024-01-30T02:11:12;41.50;;;19.20;;
44440;SDS011;30146;52.268;20.944;2024-01-30T02:13:44;42.90;;;21.50;;
44440;SDS011;30146;52.268;20.944;2024-01-30T02:16:15;32.30;;;18.30;;
44440;SDS011;30146;52.268;20.944;2024-01-30T02:18:47;44.10;;;20.20;;
44440;SDS011;30146;52.268;20.944;2024-01-30T02:21:18;42.10;;;19.80;;
44440;SDS011;30146;52.268;20.944;2024-01-30T02:23:49;43.80;;;20.30;;
44440;SDS011;30146;52.268;20.944;2024-01-30T02:26:21;37.00;;;18.40;;
44440;SDS011;30146;52.268;20.944;2024-01-30T02:28:52;32.50;;;16.70;;
44440;SDS011;30146;52.268;20.944;2024-01-30T02:31:23;42.30;;;20.90;;
44440;SDS011;30146;52.268;20.944;2024-01-30T02:33:55;46.90;;;20.80;;
44440;SDS011;30146;52.268;20.944;2024-01-30T02:36:26;37.20;;;19.20;;
44440;SDS011;30146;52.268;20.944;2024-01-30T02:38:57;44.20;;;21.20;;
44440;SDS011;30146;52.268;20.944;2024-01-30T02:41:28;42.60;;;21.00;;
44440;SDS011;30146;52.268;20.944;2024-01-30T02:43:59;36.40;;;19.80;;
44440;SDS011;30146;52.268;20.944;2024-01-30T02:46:30;46.20;;;21.30;;
44440;SDS011;30146;52.268;20.944;2024-01-30T02:49:01;42.90;;;20.60;;
44440;SDS011;30146;52.268;20.944;2024-01-30T02:51:32;35.00;;;19.00;;
44440;SDS011;30146;52.268;20.944;2024-01-30T02:54:03;43.00;;;20.30;;
44440;SDS011;30146;52.268;20.944;2024-01-30T02:56:34;40.20;;;21.10;;
44440;SDS011;30146;52.268;20.944;2024-01-30T02:59:05;40.60;;;18.30;;
44440;SDS011;30146;52.268;20.944;2024-01-30T03:01:43;38.60;;;20.00;;
44440;SDS011;30146;52.268;20.944;2024-01-30T03:04:15;40.20;;;19.40;;
44440;SDS011;30146;52.268;20.944;2024-01-30T03:06:46;42.30;;;18.60;;
44440;SDS011;30146;52.268;20.944;2024-01-30T03:09:18;40.10;;;18.90;;
44440;SDS011;30146;52.268;20.944;2024-01-30T03:11:49;40.20;;;21.60;;
44440;SDS011;30146;52.268;20.944;2024-01-30T03:14:20;31.10;;;17.40;;
44440;SDS011;30146;52.268;20.944;2024-01-30T03:16:51;36.60;;;19.20;;
44440;SDS011;30146;52.268;20.944;2024-01-30T03:19:22;39.60;;;20.10;;
44440;SDS011;30146;52.268;20.944;2024-01-30T03:21:53;43.20;;;20.80;;
44440;SDS011;30146;52.268;20.944;2024-01-30T03:24:24;44.30;;;18.80;;
44440;SDS011;30146;52.268;20.944;2024-01-30T03:26:55;38.10;;;19.30;;
44440;SDS011;30146;52.268;20.944;2024-01-30T03:29:26;40.60;;;19.10;;
44440;SDS011;30146;52.268;20.944;2024-01-30T03:31:57;44.40;;;19.60;;
44440;SDS011;30146;52.268;20.944;2024-01-30T03:34:28;36.70;;;18.20;;
44440;SDS011;30146;52.268;20.944;2024-01-30T03:36:59;40.20;;;19.60;;
44440;SDS011;30146;52.268;20.944;2024-01-30T03:39:30;35.80;;;17.60;;
44440;SDS011;30146;52.268;20.944;2024-01-30T03:42:01;42.30;;;18.90;;
44440;SDS011;30146;52.268;20.944;2024-01-30T03:44:32;45.90;;;19.60;;
44440;SDS011;30146;52.268;20.944;2024-01-30T03:47:03;35.50;;;18.50;;
44440;SDS011;30146;52.268;20.944;2024-01-30T03:49:34;43.70;;;18.50;;
44440;SDS011;30146;52.268;20.944;2024-01-30T03:52:06;40.10;;;19.00;;
44440;SDS011;30146;52.268;20.944;2024-01-30T03:54:37;36.60;;;17.80;;
44440;SDS011;30146;52.268;20.944;2024-01-30T03:57:08;37.30;;;18.60;;
44440;SDS011;30146;52.268;20.944;2024-01-30T03:59:42;39.80;;;19.10;;
44440;SDS011;30146;52.268;20.944;2024-01-30T04:02:13;38.40;;;18.20;;
44440;SDS011;30146;52.268;20.944;2024-01-30T04:04:46;26.50;;;15.00;;
44440;SDS011;30146;52.268;20.944;2024-01-30T04:07:17;37.90;;;19.00;;
44440;SDS011;30146;52.268;20.944;2024-01-30T04:09:51;34.20;;;17.60;;
44440;SDS011;30146;52.268;20.944;2024-01-30T04:12:22;33.50;;;19.10;;
44440;SDS011;30146;52.268;20.944;2024-01-30T04:14:53;40.30;;;19.70;;
44440;SDS011;30146;52.268;20.944;2024-01-30T04:17:24;43.30;;;18.80;;
44440;SDS011;30146;52.268;20.944;2024-01-30T04:19:57;38.10;;;17.60;;
44440;SDS011;30146;52.268;20.944;2024-01-30T04:22:28;35.40;;;17.10;;
44440;SDS011;30146;52.268;20.944;2024-01-30T04:24:59;41.60;;;20.00;;
44440;SDS011;30146;52.268;20.944;2024-01-30T04:27:31;39.30;;;18.30;;
44440;SDS011;30146;52.268;20.944;2024-01-30T04:30:02;37.30;;;18.70;;
44440;SDS011;30146;52.268;20.944;2024-01-30T04:32:34;37.00;;;18.40;;
44440;SDS011;30146;52.268;20.944;2024-01-30T04:35:06;39.40;;;18.90;;
44440;SDS011;30146;52.268;20.944;2024-01-30T04:37:39;36.90;;;18.70;;
44440;SDS011;30146;52.268;20.944;2024-01-30T04:40:10;36.50;;;17.40;;
44440;SDS011;30146;52.268;20.944;2024-01-30T04:42:42;41.80;;;18.50;;
44440;SDS011;30146;52.268;20.944;2024-01-30T04:45:13;30.30;;;17.90;;
44440;SDS011;30146;52.268;20.944;2024-01-30T04:47:44;42.30;;;18.50;;
44440;SDS011;30146;52.268;20.944;2024-01-30T04:50:15;37.30;;;20.40;;
44440;SDS011;30146;52.268;20.944;2024-01-30T04:52:47;36.10;;;16.50;;
44440;SDS011;30146;52.268;20.944;2024-01-30T04:55:18;36.70;;;17.10;;
44440;SDS011;30146;52.268;20.944;2024-01-30T04:57:50;38.30;;;17.70;;
44440;SDS011;30146;52.268;20.944;2024-01-30T05:00:21;34.20;;;18.10;;
44440;SDS011;30146;52.268;20.944;2024-01-30T05:02:54;33.90;;;19.80;;
44440;SDS011;30146;52.268;20.944;2024-01-30T05:05:25;34.30;;;17.50;;
44440;SDS011;30146;52.268;20.944;2024-01-30T05:07:56;39.40;;;17.70;;
44440;SDS011;30146;52.268;20.944;2024-01-30T05:10:27;39.70;;;16.50;;
44440;SDS011;30146;52.268;20.944;2024-01-30T05:12:58;37.20;;;17.90;;
44440;SDS011;30146;52.268;20.944;2024-01-30T05:15:29;26.50;;;14.90;;
44440;SDS011;30146;52.268;20.944;2024-01-30T05:18:01;33.50;;;18.30;;
44440;SDS011;30146;52.268;20.944;2024-01-30T05:20:32;39.80;;;20.10;;
44440;SDS011;30146;52.268;20.944;2024-01-30T05:23:03;37.40;;;17.80;;
44440;SDS011;30146;52.268;20.944;2024-01-30T05:25:34;50.50;;;23.60;;
44440;SDS011;30146;52.268;20.944;2024-01-30T05:28:05;45.30;;;22.50;;
44440;SDS011;30146;52.268;20.944;2024-01-30T05:30:37;47.10;;;20.30;;
44440;SDS011;30146;52.268;20.944;2024-01-30T05:33:08;33.40;;;16.40;;
44440;SDS011;30146;52.268;20.944;2024-01-30T05:35:40;39.90;;;19.00;;
44440;SDS011;30146;52.268;20.944;2024-01-30T05:38:11;34.40;;;18.40;;
44440;SDS011;30146;52.268;20.944;2024-01-30T05:40:42;38.30;;;18.70;;
44440;SDS011;30146;52.268;20.944;2024-01-30T05:43:14;37.20;;;18.70;;
44440;SDS011;30146;52.268;20.944;2024-01-30T05:45:45;40.60;;;18.10;;
44440;SDS011;30146;52.268;20.944;2024-01-30T05:48:16;37.10;;;19.90;;
44440;SDS011;30146;52.268;20.944;2024-01-30T05:50:47;44.80;;;22.20;;
44440;SDS011;30146;52.268;20.944;2024-01-30T05:53:18;33.10;;;18.50;;
44440;SDS011;30146;52.268;20.944;2024-01-30T05:55:49;41.60;;;19.00;;
44440;SDS011;30146;52.268;20.944;2024-01-30T05:58:20;37.10;;;18.40;;
44440;SDS011;30146;52.268;20.944;2024-01-30T06:00:51;35.20;;;18.80;;
44440;SDS011;30146;52.268;20.944;2024-01-30T06:03:23;38.90;;;18.00;;
44440;SDS011;30146;52.268;20.944;2024-01-30T06:05:54;35.90;;;18.40;;
44440;SDS011;30146;52.268;20.944;2024-01-30T06:08:25;43.70;;;19.20;;
44440;SDS011;30146;52.268;20.944;2024-01-30T06:10:56;37.70;;;18.80;;
44440;SDS011;30146;52.268;20.944;2024-01-30T06:13:30;41.10;;;18.50;;
44440;SDS011;30146;52.268;20.944;2024-01-30T06:16:02;33.20;;;16.90;;
44440;SDS011;30146;52.268;20.944;2024-01-30T06:18:34;32.90;;;18.10;;
44440;SDS011;30146;52.268;20.944;2024-01-30T06:21:05;30.20;;;16.30;;
44440;SDS011;30146;52.268;20.944;2024-01-30T06:23:40;37.50;;;16.80;;
44440;SDS011;30146;52.268;20.944;2024-01-30T06:26:11;37.10;;;17.40;;
44440;SDS011;30146;52.268;20.944;2024-01-30T06:28:44;40.50;;;18.40;;
44440;SDS011;30146;52.268;20.944;2024-01-30T06:31:15;40.90;;;18.80;;
44440;SDS011;30146;52.268;20.944;2024-01-30T06:33:47;36.90;;;19.70;;
44440;SDS011;30146;52.268;20.944;2024-01-30T06:36:19;40.50;;;18.90;;
44440;SDS011;30146;52.268;20.944;2024-01-30T06:38:50;35.90;;;18.30;;
44440;SDS011;30146;52.268;20.944;2024-01-30T06:41:21;36.80;;;19.20;;
44440;SDS011;30146;52.268;20.944;2024-01-30T06:43:52;33.40;;;17.10;;
44440;SDS011;30146;52.268;20.944;2024-01-30T06:46:23;34.30;;;17.90;;
44440;SDS011;30146;52.268;20.944;2024-01-30T06:48:57;34.50;;;17.90;;
44440;SDS011;30146;52.268;20.944;2024-01-30T06:51:28;34.20;;;17.00;;
44440;SDS011;30146;52.268;20.944;2024-01-30T06:53:59;40.00;;;18.30;;
44440;SDS011;30146;52.268;20.944;2024-01-30T06:56:30;37.00;;;18.50;;
44440;SDS011;30146;52.268;20.944;2024-01-30T06:59:02;40.30;;;17.30;;
44440;SDS011;30146;52.268;20.944;2024-01-30T07:01:34;34.60;;;16.20;;
44440;SDS011;30146;52.268;20.944;2024-01-30T07:04:05;37.80;;;18.30;;
44440;SDS011;30146;52.268;20.944;2024-01-30T07:06:37;38.70;;;18.30;;
44440;SDS011;30146;52.268;20.944;2024-01-30T07:09:08;37.50;;;20.10;;
44440;SDS011;30146;52.268;20.944;2024-01-30T07:11:39;48.70;;;24.40;;
44440;SDS011;30146;52.268;20.944;2024-01-30T07:14:10;38.20;;;21.20;;
44440;SDS011;30146;52.268;20.944;2024-01-30T07:16:42;35.30;;;19.60;;
44440;SDS011;30146;52.268;20.944;2024-01-30T07:19:15;37.20;;;20.10;;
44440;SDS011;30146;52.268;20.944;2024-01-30T07:21:46;36.10;;;18.00;;
44440;SDS011;30146;52.268;20.944;2024-01-30T07:24:17;48.00;;;25.00;;
44440;SDS011;30146;52.268;20.944;2024-01-30T07:26:48;37.50;;;19.80;;
44440;SDS011;30146;52.268;20.944;2024-01-30T07:29:20;38.70;;;20.80;;
44440;SDS011;30146;52.268;20.944;2024-01-30T07:31:51;42.30;;;20.60;;
44440;SDS011;30146;52.268;20.944;2024-01-30T07:34:24;35.60;;;19.50;;
44440;SDS011;30146;52.268;20.944;2024-01-30T07:36:56;35.00;;;18.70;;
44440;SDS011;30146;52.268;20.944;2024-01-30T07:39:28;35.20;;;19.00;;
44440;SDS011;30146;52.268;20.944;2024-01-30T07:41:59;37.60;;;19.60;;
44440;SDS011;30146;52.268;20.944;2024-01-30T07:44:34;41.50;;;18.60;;
44440;SDS011;30146;52.268;20.944;2024-01-30T07:47:06;36.70;;;19.00;;
44440;SDS011;30146;52.268;20.944;2024-01-30T07:49:37;47.00;;;25.20;;
44440;SDS011;30146;52.268;20.944;2024-01-30T07:52:09;41.60;;;21.60;;
44440;SDS011;30146;52.268;20.944;2024-01-30T07:54:40;35.90;;;18.60;;
44440;SDS011;30146;52.268;20.944;2024-01-30T07:57:15;34.10;;;20.40;;
44440;SDS011;30146;52.268;20.944;2024-01-30T07:59:46;35.60;;;19.30;;
44440;SDS011;30146;52.268;20.944;2024-01-30T08:02:17;38.70;;;19.10;;
44440;SDS011;30146;52.268;20.944;2024-01-30T08:04:48;37.50;;;19.10;;
44440;SDS011;30146;52.268;20.944;2024-01-30T08:07:20;35.70;;;18.50;;
44440;SDS011;30146;52.268;20.944;2024-01-30T08:09:51;34.20;;;18.30;;
44440;SDS011;30146;52.268;20.944;2024-01-30T08:12:22;33.40;;;18.60;;
44440;SDS011;30146;52.268;20.944;2024-01-30T08:14:53;32.20;;;16.60;;
44440;SDS011;30146;52.268;20.944;2024-01-30T08:17:24;33.30;;;18.60;;
44440;SDS011;30146;52.268;20.944;2024-01-30T08:19:55;32.80;;;18.20;;
44440;SDS011;30146;52.268;20.944;2024-01-30T08:22:27;32.30;;;17.30;;
44440;SDS011;30146;52.268;20.944;2024-01-30T08:24:58;33.70;;;18.00;;
44440;SDS011;30146;52.268;20.944;2024-01-30T08:27:29;34.60;;;18.40;;
44440;SDS011;30146;52.268;20.944;2024-01-30T08:30:01;32.50;;;17.70;;
44440;SDS011;30146;52.268;20.944;2024-01-30T08:32:32;27.00;;;17.20;;
44440;SDS011;30146;52.268;20.944;2024-01-30T08:35:04;34.30;;;19.30;;
44440;SDS011;30146;52.268;20.944;2024-01-30T08:37:37;33.80;;;16.00;;
44440;SDS011;30146;52.268;20.944;2024-01-30T08:40:08;34.90;;;18.60;;
44440;SDS011;30146;52.268;20.944;2024-01-30T08:42:40;30.20;;;17.20;;
44440;SDS011;30146;52.268;20.944;2024-01-30T08:45:12;36.30;;;18.10;;
44440;SDS011;30146;52.268;20.944;2024-01-30T08:47:43;32.80;;;17.90;;
44440;SDS011;30146;52.268;20.944;2024-01-30T08:50:14;32.80;;;17.80;;
44440;SDS011;30146;52.268;20.944;2024-01-30T08:52:45;32.10;;;17.80;;
44440;SDS011;30146;52.268;20.944;2024-01-30T08:55:17;27.10;;;17.20;;
44440;SDS011;30146;52.268;20.944;2024-01-30T08:57:48;30.30;;;18.00;;
44440;SDS011;30146;52.268;20.944;2024-01-30T09:00:20;32.80;;;18.00;;
44440;SDS011;30146;52.268;20.944;2024-01-30T09:02:51;29.10;;;16.70;;
44440;SDS011;30146;52.268;20.944;2024-01-30T09:05:22;28.50;;;16.40;;
44440;SDS011;30146;52.268;20.944;2024-01-30T09:07:53;26.10;;;16.00;;
44440;SDS011;30146;52.268;20.944;2024-01-30T09:10:25;30.70;;;15.50;;
44440;SDS011;30146;52.268;20.944;2024-01-30T09:12:56;26.00;;;15.60;;
44440;SDS011;30146;52.268;20.944;2024-01-30T09:15:27;22.30;;;15.00;;
44440;SDS011;30146;52.268;20.944;2024-01-30T09:17:58;28.20;;;16.00;;
44440;SDS011;30146;52.268;20.944;2024-01-30T09:20:29;25.20;;;15.50;;
44440;SDS011;30146;52.268;20.944;2024-01-30T09:23:02;25.70;;;14.10;;
44440;SDS011;30146;52.268;20.944;2024-01-30T09:25:33;27.20;;;15.50;;
44440;SDS011;30146;52.268;20.944;2024-01-30T09:28:05;27.40;;;14.90;;
44440;SDS011;30146;52.268;20.944;2024-01-30T09:30:37;26.50;;;14.60;;
44440;SDS011;30146;52.268;20.944;2024-01-30T09:33:09;25.20;;;14.60;;
44440;SDS011;30146;52.268;20.944;2024-01-30T09:35:40;22.10;;;14.20;;
44440;SDS011;30146;52.268;20.944;2024-01-30T09:38:11;33.50;;;15.60;;
44440;SDS011;30146;52.268;20.944;2024-01-30T09:40:46;25.00;;;13.90;;
44440;SDS011;30146;52.268;20.944;2024-01-30T09:43:33;26.40;;;14.30;;
44440;SDS011;30146;52.268;20.944;2024-01-30T09:46:06;23.10;;;14.40;;
44440;SDS011;30146;52.268;20.944;2024-01-30T09:48:41;23.00;;;13.50;;
44440;SDS011;30146;52.268;20.944;2024-01-30T09:51:12;23.30;;;13.90;;
44440;SDS011;30146;52.268;20.944;2024-01-30T09:53:46;29.10;;;14.10;;
44440;SDS011;30146;52.268;20.944;2024-01-30T09:56:18;31.90;;;15.10;;
44440;SDS011;30146;52.268;20.944;2024-01-30T09:58:54;25.00;;;13.60;;
44440;SDS011;30146;52.268;20.944;2024-01-30T10:01:25;28.10;;;14.00;;
44440;SDS011;30146;52.268;20.944;2024-01-30T10:03:57;24.70;;;13.80;;
44440;SDS011;30146;52.268;20.944;2024-01-30T10:06:28;24.60;;;13.10;;
44440;SDS011;30146;52.268;20.944;2024-01-30T10:09:00;20.90;;;12.30;;
44440;SDS011;30146;52.268;20.944;2024-01-30T10:11:31;23.00;;;12.70;;
44440;SDS011;30146;52.268;20.944;2024-01-30T10:14:03;23.70;;;11.50;;
44440;SDS011;30146;52.268;20.944;2024-01-30T10:16:35;20.40;;;12.10;;
44440;SDS011;30146;52.268;20.944;2024-01-30T10:19:06;18.10;;;12.20;;
44440;SDS011;30146;52.268;20.944;2024-01-30T10:21:38;22.50;;;11.90;;
44440;SDS011;30146;52.268;20.944;2024-01-30T10:24:10;24.10;;;12.10;;
44440;SDS011;30146;52.268;20.944;2024-01-30T10:26:44;25.50;;;12.40;;
44440;SDS011;30146;52.268;20.944;2024-01-30T10:29:16;22.00;;;12.00;;
44440;SDS011;30146;52.268;20.944;2024-01-30T10:31:56;23.50;;;12.20;;
44440;SDS011;30146;52.268;20.944;2024-01-30T10:34:28;23.60;;;12.30;;
44440;SDS011;30146;52.268;20.944;2024-01-30T10:37:07;19.90;;;12.40;;
44440;SDS011;30146;52.268;20.944;2024-01-30T10:39:41;21.20;;;12.00;;
44440;SDS011;30146;52.268;20.944;2024-01-30T10:42:14;20.90;;;11.90;;
44440;SDS011;30146;52.268;20.944;2024-01-30T10:44:48;18.00;;;11.30;;
44440;SDS011;30146;52.268;20.944;2024-01-30T10:47:27;21.10;;;11.70;;
44440;SDS011;30146;52.268;20.944;2024-01-30T10:49:59;22.80;;;13.10;;
44440;SDS011;30146;52.268;20.944;2024-01-30T10:52:31;23.40;;;11.80;;
44440;SDS011;30146;52.268;20.944;2024-01-30T10:55:04;23.40;;;11.40;;
44440;SDS011;30146;52.268;20.944;2024-01-30T10:57:37;29.40;;;13.50;;
44440;SDS011;30146;52.268;20.944;2024-01-30T11:00:09;25.70;;;13.50;;
44440;SDS011;30146;52.268;20.944;2024-01-30T11:02:44;27.40;;;13.80;;
44440;SDS011;30146;52.268;20.944;2024-01-30T11:05:22;29.80;;;11.60;;
44440;SDS011;30146;52.268;20.944;2024-01-30T11:08:00;26.20;;;12.90;;
44440;SDS011;30146;52.268;20.944;2024-01-30T11:10:47;24.40;;;12.40;;
44440;SDS011;30146;52.268;20.944;2024-01-30T11:13:21;20.80;;;11.50;;
44440;SDS011;30146;52.268;20.944;2024-01-30T11:15:56;21.70;;;11.20;;
44440;SDS011;30146;52.268;20.944;2024-01-30T11:18:31;21.60;;;11.50;;
44440;SDS011;30146;52.268;20.944;2024-01-30T11:21:05;27.20;;;11.50;;
44440;SDS011;30146;52.268;20.944;2024-01-30T11:23:38;25.50;;;12.00;;
44440;SDS011;30146;52.268;20.944;2024-01-30T11:26:11;21.80;;;11.80;;
44440;SDS011;30146;52.268;20.944;2024-01-30T11:28:42;18.20;;;10.80;;
44440;SDS011;30146;52.268;20.944;2024-01-30T11:31:21;22.20;;;11.30;;
44440;SDS011;30146;52.268;20.944;2024-01-30T11:33:53;21.60;;;12.10;;
44440;SDS011;30146;52.268;20.944;2024-01-30T11:36:26;21.80;;;12.00;;
44440;SDS011;30146;52.268;20.944;2024-01-30T11:38:58;19.30;;;11.10;;
44440;SDS011;30146;52.268;20.944;2024-01-30T11:41:29;20.20;;;12.00;;
44440;SDS011;30146;52.268;20.944;2024-01-30T11:44:03;22.50;;;10.60;;
44440;SDS011;30146;52.268;20.944;2024-01-30T11:46:35;23.30;;;12.00;;
44440;SDS011;30146;52.268;20.944;2024-01-30T11:49:06;25.70;;;11.40;;
44440;SDS011;30146;52.268;20.944;2024-01-30T11:51:37;21.30;;;11.70;;
44440;SDS011;30146;52.268;20.944;2024-01-30T11:54:09;22.20;;;11.90;;
44440;SDS011;30146;52.268;20.944;2024-01-30T11:56:41;30.80;;;16.70;;
44440;SDS011;30146;52.268;20.944;2024-01-30T11:59:12;22.60;;;11.90;;
44440;SDS011;30146;52.268;20.944;2024-01-30T12:01:44;22.60;;;11.50;;
44440;SDS011;30146;52.268;20.944;2024-01-30T12:04:16;17.80;;;11.20;;
44440;SDS011;30146;52.268;20.944;2024-01-30T12:06:47;20.70;;;11.40;;
44440;SDS011;30146;52.268;20.944;2024-01-30T12:09:21;21.00;;;10.60;;
44440;SDS011;30146;52.268;20.944;2024-01-30T12:11:52;20.00;;;11.30;;
44440;SDS011;30146;52.268;20.944;2024-01-30T12:14:24;21.60;;;11.50;;
44440;SDS011;30146;52.268;20.944;2024-01-30T12:16:56;23.70;;;11.00;;
44440;SDS011;30146;52.268;20.944;2024-01-30T12:19:28;22.80;;;11.60;;
44440;SDS011;30146;52.268;20.944;2024-01-30T12:21:59;19.40;;;10.80;;
44440;SDS011;30146;52.268;20.944;2024-01-30T12:24:31;21.40;;;11.20;;
44440;SDS011;30146;52.268;20.944;2024-01-30T12:27:03;25.40;;;10.70;;
44440;SDS011;30146;52.268;20.944;2024-01-30T12:29:35;26.10;;;11.50;;
44440;SDS011;30146;52.268;20.944;2024-01-30T12:32:08;21.40;;;11.70;;
44440;SDS011;30146;52.268;20.944;2024-01-30T12:34:44;21.30;;;10.40;;
44440;SDS011;30146;52.268;20.944;2024-01-30T12:37:27;19.50;;;11.10;;
44440;SDS011;30146;52.268;20.944;2024-01-30T12:40:01;20.60;;;11.80;;
44440;SDS011;30146;52.268;20.944;2024-01-30T12:42:34;23.30;;;12.00;;
44440;SDS011;30146;52.268;20.944;2024-01-30T12:45:06;29.60;;;13.40;;
44440;SDS011;30146;52.268;20.944;2024-01-30T12:47:38;28.20;;;12.80;;
44440;SDS011;30146;52.268;20.944;2024-01-30T12:50:09;24.10;;;12.40;;
44440;SDS011;30146;52.268;20.944;2024-01-30T12:52:44;23.60;;;11.70;;
44440;SDS011;30146;52.268;20.944;2024-01-30T12:55:17;33.50;;;17.10;;
44440;SDS011;30146;52.268;20.944;2024-01-30T12:57:48;24.30;;;12.40;;
44440;SDS011;30146;52.268;20.944;2024-01-30T13:00:20;31.80;;;17.70;;
44440;SDS011;30146;52.268;20.944;2024-01-30T13:02:51;26.80;;;12.80;;
44440;SDS011;30146;52.268;20.944;2024-01-30T13:05:23;22.30;;;11.10;;
44440;SDS011;30146;52.268;20.944;2024-01-30T13:07:54;22.50;;;12.20;;
44440;SDS011;30146;52.268;20.944;2024-01-30T13:10:25;20.00;;;11.10;;
44440;SDS011;30146;52.268;20.944;2024-01-30T13:12:56;20.40;;;10.60;;
44440;SDS011;30146;52.268;20.944;2024-01-30T13:15:28;22.20;;;12.40;;
44440;SDS011;30146;52.268;20.944;2024-01-30T13:17:59;25.20;;;12.40;;
44440;SDS011;30146;52.268;20.944;2024-01-30T13:20:31;28.20;;;12.10;;
44440;SDS011;30146;52.268;20.944;2024-01-30T13:23:02;27.60;;;12.60;;
44440;SDS011;30146;52.268;20.944;2024-01-30T13:25:33;19.10;;;11.00;;
44440;SDS011;30146;52.268;20.944;2024-01-30T13:28:05;28.00;;;11.40;;
44440;SDS011;30146;52.268;20.944;2024-01-30T13:30:37;20.30;;;11.30;;
44440;SDS011;30146;52.268;20.944;2024-01-30T13:33:08;24.80;;;11.30;;
44440;SDS011;30146;52.268;20.944;2024-01-30T13:35:40;23.60;;;12.10;;
44440;SDS011;30146;52.268;20.944;2024-01-30T13:38:11;23.30;;;12.10;;
44440;SDS011;30146;52.268;20.944;2024-01-30T13:40:43;29.20;;;12.40;;
44440;SDS011;30146;52.268;20.944;2024-01-30T13:43:17;22.50;;;11.60;;
44440;SDS011;30146;52.268;20.944;2024-01-30T13:45:49;19.20;;;11.20;;
44440;SDS011;30146;52.268;20.944;2024-01-30T13:48:21;20.20;;;10.80;;
44440;SDS011;30146;52.268;20.944;2024-01-30T13:50:54;24.50;;;12.50;;
44440;SDS011;30146;52.268;20.944;2024-01-30T13:53:25;22.60;;;11.90;;
44440;SDS011;30146;52.268;20.944;2024-01-30T13:55:56;26.00;;;13.10;;
44440;SDS011;30146;52.268;20.944;2024-01-30T13:58:27;31.20;;;12.00;;
44440;SDS011;30146;52.268;20.944;2024-01-30T14:00:58;22.60;;;12.10;;
44440;SDS011;30146;52.268;20.944;2024-01-30T14:03:30;23.80;;;12.60;;
44440;SDS011;30146;52.268;20.944;2024-01-30T14:06:03;19.10;;;11.90;;
44440;SDS011;30146;52.268;20.944;2024-01-30T14:08:35;27.80;;;12.50;;
44440;SDS011;30146;52.268;20.944;2024-01-30T14:11:06;23.60;;;12.80;;
44440;SDS011;30146;52.268;20.944;2024-01-30T14:13:38;23.20;;;12.50;;
44440;SDS011;30146;52.268;20.944;2024-01-30T14:16:10;24.70;;;12.30;;
44440;SDS011;30146;52.268;20.944;2024-01-30T14:18:42;32.40;;;12.90;;
44440;SDS011;30146;52.268;20.944;2024-01-30T14:21:13;27.70;;;13.30;;
44440;SDS011;30146;52.268;20.944;2024-01-30T14:23:44;24.10;;;13.70;;
44440;SDS011;30146;52.268;20.944;2024-01-30T14:26:16;24.70;;;13.50;;
44440;SDS011;30146;52.268;20.944;2024-01-30T14:28:48;20.30;;;11.80;;
44440;SDS011;30146;52.268;20.944;2024-01-30T14:31:19;24.70;;;13.30;;
44440;SDS011;30146;52.268;20.944;2024-01-30T14:33:54;27.30;;;13.80;;